createdAt,value
2023-05-11T00:02:23.172Z,2.97
2023-05-11T00:04:50.558Z,3.50
2023-05-11T00:07:17.873Z,3.67
2023-05-11T00:09:45.196Z,3.70
2023-05-11T00:12:13.523Z,3.30
2023-05-11T00:14:41.273Z,3.85
2023-05-11T00:17:08.671Z,4.22
2023-05-11T00:19:36.086Z,3.78
2023-05-11T00:22:03.817Z,3.70
2023-05-11T00:24:31.193Z,3.60
2023-05-11T00:26:58.541Z,4.05
2023-05-11T00:29:26.562Z,4.13
2023-05-11T00:31:54.024Z,3.83
2023-05-11T00:34:21.446Z,4.00
2023-05-11T00:36:49.732Z,3.65
2023-05-11T00:39:17.790Z,4.15
2023-05-11T00:41:45.093Z,4.10
2023-05-11T00:44:12.478Z,3.72
2023-05-11T00:46:40.369Z,4.25
2023-05-11T00:49:08.424Z,3.35
2023-05-11T00:51:35.954Z,3.65
2023-05-11T00:54:03.451Z,4.55
2023-05-11T00:56:30.961Z,3.65
2023-05-11T00:58:58.570Z,4.55
2023-05-11T01:01:25.876Z,3.75
2023-05-11T01:03:53.265Z,3.83
2023-05-11T01:06:20.736Z,4.53
2023-05-11T01:09:08.436Z,4.40
2023-05-11T01:11:44.666Z,4.55
2023-05-11T01:14:26.586Z,3.60
2023-05-11T01:16:56.815Z,3.63
2023-05-11T01:19:24.160Z,3.55
2023-05-11T01:21:52.224Z,3.83
2023-05-11T01:24:24.608Z,4.70
2023-05-11T01:26:55.112Z,4.43
2023-05-11T01:29:22.538Z,4.85
2023-05-11T01:31:51.011Z,3.83
2023-05-11T01:34:19.733Z,3.95
2023-05-11T01:36:58.929Z,4.03
2023-05-11T01:39:29.852Z,4.07
2023-05-11T01:41:59.452Z,4.05
2023-05-11T01:44:31.225Z,3.88
2023-05-11T01:47:00.517Z,4.65
2023-05-11T01:49:28.547Z,4.30
2023-05-11T01:51:56.283Z,4.45
2023-05-11T01:54:24.171Z,4.32
2023-05-11T01:56:51.978Z,4.47
2023-05-11T01:59:19.802Z,4.60
2023-05-11T02:01:47.319Z,4.47
2023-05-11T02:04:15.165Z,4.13
2023-05-11T02:06:44.028Z,4.75
2023-05-11T02:09:12.526Z,4.70
2023-05-11T02:11:41.055Z,4.82
2023-05-11T02:14:08.650Z,4.65
2023-05-11T02:16:36.410Z,4.07
2023-05-11T02:19:04.236Z,4.45
2023-05-11T02:21:32.566Z,4.72
2023-05-11T02:24:01.175Z,4.75
2023-05-11T02:26:28.568Z,5.53
2023-05-11T02:28:56.608Z,4.45
2023-05-11T02:31:26.638Z,4.53
2023-05-11T02:33:54.809Z,3.97
2023-05-11T02:36:23.539Z,4.20
2023-05-11T02:38:51.848Z,3.88
2023-05-11T02:41:22.790Z,3.85
2023-05-11T02:43:51.068Z,3.80
2023-05-11T02:46:21.225Z,4.18
2023-05-11T02:48:51.718Z,4.15
2023-05-11T02:51:23.180Z,3.75
2023-05-11T02:53:51.283Z,4.70
2023-05-11T02:56:18.993Z,4.20
2023-05-11T02:58:46.451Z,4.35
2023-05-11T03:01:13.936Z,4.38
2023-05-11T03:03:41.927Z,3.40
2023-05-11T03:06:09.475Z,3.78
2023-05-11T03:08:37.757Z,3.95
2023-05-11T03:11:05.741Z,4.28
2023-05-11T03:13:33.601Z,3.63
2023-05-11T03:16:02.684Z,4.25
2023-05-11T03:18:30.451Z,4.00
2023-05-11T03:20:58.797Z,4.00
2023-05-11T03:23:26.922Z,4.30
2023-05-11T03:25:54.633Z,3.83
2023-05-11T03:28:23.688Z,3.38
2023-05-11T03:30:52.923Z,3.97
2023-05-11T03:33:21.270Z,4.18
2023-05-11T03:35:51.107Z,3.42
2023-05-11T03:38:19.735Z,3.90
2023-05-11T03:40:47.926Z,4.20
2023-05-11T03:43:17.370Z,4.30
2023-05-11T03:45:45.252Z,3.63
2023-05-11T03:48:13.011Z,3.35
2023-05-11T03:50:40.594Z,3.47
2023-05-11T03:53:08.044Z,3.75
2023-05-11T03:55:35.607Z,3.28
2023-05-11T03:58:04.386Z,3.55
2023-05-11T04:00:32.005Z,4.10
2023-05-11T04:02:59.405Z,4.88
2023-05-11T04:05:26.937Z,4.70
2023-05-11T04:07:54.265Z,5.05
2023-05-11T04:10:22.693Z,4.38
2023-05-11T04:12:50.024Z,4.20
2023-05-11T04:15:17.488Z,3.40
2023-05-11T04:17:44.828Z,4.53
2023-05-11T04:20:12.282Z,4.20
2023-05-11T04:22:39.600Z,4.80
2023-05-11T04:25:07.183Z,4.07
2023-05-11T04:27:34.842Z,3.63
2023-05-11T04:30:02.438Z,3.65
2023-05-11T04:32:30.523Z,3.72
2023-05-11T04:34:57.947Z,4.00
2023-05-11T04:37:25.640Z,3.47
2023-05-11T04:39:52.946Z,3.97
2023-05-11T04:42:20.318Z,4.57
2023-05-11T04:44:47.635Z,4.40
2023-05-11T04:47:15.774Z,3.72
2023-05-11T04:49:44.350Z,3.78
2023-05-11T04:52:11.761Z,4.05
2023-05-11T04:54:39.440Z,3.92
2023-05-11T04:57:06.843Z,3.75
2023-05-11T04:59:34.208Z,4.10
2023-05-11T05:02:01.609Z,4.00
2023-05-11T05:04:29.130Z,4.10
2023-05-11T05:06:56.511Z,3.88
2023-05-11T05:09:23.878Z,4.88
2023-05-11T05:11:51.237Z,4.07
2023-05-11T05:14:18.564Z,4.25
2023-05-11T05:16:45.975Z,4.80
2023-05-11T05:19:13.341Z,3.88
2023-05-11T05:21:40.928Z,4.30
2023-05-11T05:24:11.391Z,5.05
2023-05-11T05:26:38.941Z,3.97
2023-05-11T05:29:07.182Z,4.82
2023-05-11T05:31:34.561Z,4.93
2023-05-11T05:34:01.938Z,4.55
2023-05-11T05:36:29.253Z,4.72
2023-05-11T05:38:56.612Z,4.97
2023-05-11T05:41:24.113Z,5.05
2023-05-11T05:43:51.855Z,5.20
2023-05-11T05:46:19.223Z,4.63
2023-05-11T05:48:46.586Z,5.45
2023-05-11T05:51:13.938Z,5.72
2023-05-11T05:53:41.385Z,6.20
2023-05-11T05:56:08.794Z,5.50
2023-05-11T05:58:36.103Z,5.28
2023-05-11T06:01:03.461Z,5.70
2023-05-11T06:03:30.909Z,5.30
2023-05-11T06:05:59.141Z,5.45
2023-05-11T06:08:26.487Z,5.13
2023-05-11T06:10:53.858Z,6.75
2023-05-11T06:13:21.232Z,5.82
2023-05-11T06:15:48.578Z,5.88
2023-05-11T06:18:15.979Z,5.80
2023-05-11T06:20:43.523Z,4.90
2023-05-11T06:23:11.036Z,4.68
2023-05-11T06:25:38.841Z,4.60
2023-05-11T06:28:06.653Z,5.10
2023-05-11T06:30:33.949Z,4.60
2023-05-11T06:33:01.412Z,4.90
2023-05-11T06:35:30.459Z,4.18
2023-05-11T06:37:58.026Z,5.75
2023-05-11T06:40:26.049Z,4.55
2023-05-11T06:42:53.401Z,4.38
2023-05-11T06:45:20.820Z,4.25
2023-05-11T06:47:48.325Z,4.60
2023-05-11T06:50:15.787Z,4.55
2023-05-11T06:52:43.234Z,4.60
2023-05-11T06:55:14.417Z,4.32
2023-05-11T06:57:41.769Z,3.60
2023-05-11T07:00:09.486Z,5.00
2023-05-11T07:02:36.970Z,4.50
2023-05-11T07:05:04.542Z,4.85
2023-05-11T07:07:31.923Z,4.70
2023-05-11T07:09:59.296Z,4.53
2023-05-11T07:12:26.588Z,4.13
2023-05-11T07:14:53.947Z,4.15
2023-05-11T07:17:21.394Z,3.95
2023-05-11T07:19:48.886Z,3.92
2023-05-11T07:22:16.196Z,4.72
2023-05-11T07:24:43.646Z,4.43
2023-05-11T07:27:11.541Z,4.40
2023-05-11T07:29:38.899Z,4.43
2023-05-11T07:32:06.238Z,4.68
2023-05-11T07:34:33.562Z,4.45
2023-05-11T07:37:01.893Z,4.57
2023-05-11T07:39:29.413Z,4.13
2023-05-11T07:41:56.746Z,4.43
2023-05-11T07:44:24.151Z,4.60
2023-05-11T07:46:51.490Z,4.15
2023-05-11T07:49:25.484Z,4.53
2023-05-11T07:51:58.649Z,4.55
2023-05-11T07:54:26.445Z,4.63
2023-05-11T07:56:53.804Z,4.38
2023-05-11T07:59:21.154Z,4.22
2023-05-11T08:01:48.500Z,4.28
2023-05-11T08:04:15.884Z,5.00
2023-05-11T08:06:43.216Z,4.53
2023-05-11T08:09:10.613Z,4.95
2023-05-11T08:11:37.943Z,4.38
2023-05-11T08:14:05.279Z,4.57
2023-05-11T08:16:32.725Z,4.50
2023-05-11T08:19:00.149Z,4.47
2023-05-11T08:21:28.026Z,4.45
2023-05-11T08:23:55.319Z,4.03
2023-05-11T08:26:22.692Z,4.38
2023-05-11T08:28:52.206Z,4.53
2023-05-11T08:31:19.792Z,4.30
2023-05-11T08:33:47.256Z,5.47
2023-05-11T08:36:15.655Z,4.05
2023-05-11T08:38:43.129Z,4.70
2023-05-11T08:41:12.649Z,4.70
2023-05-11T08:43:40.428Z,4.88
2023-05-11T08:46:09.020Z,4.10
2023-05-11T08:48:36.836Z,4.15
2023-05-11T08:51:04.589Z,4.68
2023-05-11T08:53:32.503Z,4.68
2023-05-11T08:56:01.461Z,4.70
2023-05-11T08:58:28.943Z,4.53
2023-05-11T09:00:56.880Z,4.20
2023-05-11T09:03:24.287Z,4.57
2023-05-11T09:05:51.673Z,4.35
2023-05-11T09:08:19.712Z,4.40
2023-05-11T09:10:47.243Z,4.85
2023-05-11T09:13:14.610Z,4.65
2023-05-11T09:15:42.062Z,3.53
2023-05-11T09:18:09.491Z,4.10
2023-05-11T09:20:36.863Z,4.03
2023-05-11T09:23:04.236Z,3.30
2023-05-11T09:25:35.229Z,3.75
2023-05-11T09:28:02.782Z,4.55
2023-05-11T09:30:30.141Z,3.70
2023-05-11T09:33:01.343Z,4.32
2023-05-11T09:35:31.805Z,4.03
2023-05-11T09:37:59.384Z,3.97
2023-05-11T09:40:34.083Z,3.70
2023-05-11T09:43:02.590Z,3.92
2023-05-11T09:45:39.535Z,4.38
2023-05-11T09:48:08.005Z,3.08
2023-05-11T09:50:36.566Z,4.05
2023-05-11T09:53:03.969Z,3.00
2023-05-11T09:55:31.610Z,3.40
2023-05-11T09:57:59.805Z,3.30
2023-05-11T10:00:27.208Z,2.92
2023-05-11T10:03:01.745Z,3.25
2023-05-11T10:05:29.368Z,3.20
2023-05-11T10:08:04.122Z,3.08
2023-05-11T10:10:33.231Z,3.08
2023-05-11T10:13:01.901Z,3.67
2023-05-11T10:15:30.742Z,3.05
2023-05-11T10:17:59.925Z,3.42
2023-05-11T10:20:27.540Z,3.33
2023-05-11T10:22:55.639Z,3.70
2023-05-11T10:25:23.268Z,3.25
2023-05-11T10:27:54.503Z,3.20
2023-05-11T10:30:22.173Z,3.03
2023-05-11T10:32:50.800Z,3.33
2023-05-11T10:35:18.235Z,3.20
2023-05-11T10:37:46.751Z,2.53
2023-05-11T10:40:14.395Z,2.63
2023-05-11T10:42:47.603Z,2.72
2023-05-11T10:45:27.463Z,3.00
2023-05-11T10:48:00.673Z,2.70
2023-05-11T10:50:53.869Z,3.05
2023-05-11T10:53:40.083Z,3.20
2023-05-11T10:56:26.325Z,3.08
2023-05-11T10:59:09.011Z,3.08
2023-05-11T11:01:36.313Z,3.08
2023-05-11T11:04:06.368Z,2.58
2023-05-11T11:06:34.998Z,2.55
2023-05-11T11:09:04.571Z,3.30
2023-05-11T11:11:33.253Z,2.17
2023-05-11T11:14:02.951Z,2.20
2023-05-11T11:16:31.211Z,2.25
2023-05-11T11:19:36.674Z,2.75
2023-05-11T11:22:04.057Z,3.53
2023-05-11T11:24:44.922Z,1.52
2023-05-11T11:27:12.510Z,1.15
2023-05-11T11:29:40.512Z,1.20
2023-05-11T11:32:23.456Z,1.40
2023-05-11T11:34:51.225Z,2.63
2023-05-11T11:37:20.699Z,2.70
2023-05-11T11:39:50.314Z,3.17
2023-05-11T11:42:20.600Z,2.20
2023-05-11T11:44:48.615Z,1.80
2023-05-11T11:47:15.987Z,1.90
2023-05-11T11:49:47.560Z,2.50
2023-05-11T11:52:22.969Z,4.50
2023-05-11T11:54:50.286Z,3.92
2023-05-11T11:57:35.865Z,3.67
2023-05-11T12:00:07.610Z,4.05
2023-05-11T12:02:35.358Z,4.63
2023-05-11T12:05:23.671Z,5.18
2023-05-11T12:07:52.406Z,5.65
2023-05-11T12:10:20.782Z,7.30
2023-05-11T12:12:55.165Z,6.53
2023-05-11T12:15:26.683Z,7.43
2023-05-11T12:17:54.215Z,6.93
2023-05-11T12:20:21.820Z,6.65
2023-05-11T12:22:49.537Z,7.20
2023-05-11T12:25:21.044Z,6.82
2023-05-11T12:27:48.734Z,7.00
2023-05-11T12:30:26.272Z,8.20
2023-05-11T12:32:57.564Z,7.40
2023-05-11T12:35:28.236Z,7.53
2023-05-11T12:37:56.070Z,7.10
2023-05-11T12:40:23.678Z,6.90
2023-05-11T12:42:52.289Z,7.50
2023-05-11T12:45:20.766Z,7.70
2023-05-11T12:47:48.934Z,6.82
2023-05-11T12:50:16.837Z,8.23
2023-05-11T12:52:44.332Z,6.45
2023-05-11T12:55:11.962Z,7.30
2023-05-11T12:57:41.390Z,7.28
2023-05-11T13:00:08.867Z,7.75
2023-05-11T13:02:44.709Z,7.32
2023-05-11T13:05:13.213Z,8.15
2023-05-11T13:07:40.679Z,7.60
2023-05-11T13:10:08.323Z,8.00
2023-05-11T13:12:35.635Z,6.68
2023-05-11T13:15:05.946Z,8.13
2023-05-11T13:17:40.578Z,7.85
2023-05-11T13:20:17.304Z,6.90
2023-05-11T13:22:44.873Z,7.60
2023-05-11T13:25:12.363Z,8.77
2023-05-11T13:27:39.712Z,7.53
2023-05-11T13:30:07.363Z,8.20
2023-05-11T13:37:37.122Z,8.90
2023-05-11T13:40:04.745Z,10.38
2023-05-11T13:42:32.692Z,10.18
2023-05-11T13:45:00.103Z,11.43
2023-05-11T13:47:27.622Z,13.00
2023-05-11T13:49:55.255Z,13.25
2023-05-11T13:52:22.762Z,12.63
2023-05-11T13:54:50.186Z,12.90
2023-05-11T13:57:17.594Z,14.45
2023-05-11T13:59:44.994Z,13.40
2023-05-11T14:02:12.490Z,12.95
2023-05-11T14:04:40.676Z,13.85
2023-05-11T14:07:08.287Z,13.13
2023-05-11T14:09:37.292Z,12.35
2023-05-11T14:12:04.786Z,12.70
2023-05-11T14:14:32.204Z,11.68
2023-05-11T14:16:59.666Z,12.70
2023-05-11T14:19:27.520Z,13.05
2023-05-11T14:21:54.897Z,11.98
2023-05-11T14:24:22.831Z,12.40
2023-05-11T14:26:50.163Z,12.10
2023-05-11T14:29:17.579Z,12.80
2023-05-11T14:31:45.555Z,11.85
2023-05-11T14:34:12.926Z,12.00
2023-05-11T14:36:40.589Z,11.20
2023-05-11T14:39:08.125Z,11.43
2023-05-11T14:41:35.629Z,12.18
2023-05-11T14:44:03.005Z,11.80
2023-05-11T14:46:30.409Z,10.73
2023-05-11T14:48:57.832Z,10.85
2023-05-11T14:51:25.180Z,9.88
2023-05-11T14:53:52.684Z,12.15
2023-05-11T14:56:20.365Z,9.57
2023-05-11T14:58:47.726Z,12.02
2023-05-11T15:01:15.072Z,11.27
2023-05-11T15:06:21.337Z,11.02
2023-05-11T15:08:49.585Z,10.75
2023-05-11T15:11:17.339Z,11.20
2023-05-11T15:13:47.565Z,11.68
2023-05-11T15:16:15.002Z,11.88
2023-05-11T15:18:43.100Z,10.30
2023-05-11T15:21:10.661Z,10.68
2023-05-11T15:23:38.006Z,11.35
2023-05-11T15:26:05.323Z,11.30
2023-05-11T15:28:32.687Z,11.93
2023-05-11T15:31:00.033Z,10.60
2023-05-11T15:33:27.437Z,10.55
2023-05-11T15:35:55.299Z,10.43
2023-05-11T15:38:22.788Z,10.90
2023-05-11T15:40:50.142Z,11.38
2023-05-11T15:43:17.468Z,12.27
2023-05-11T15:45:44.839Z,8.63
2023-05-11T15:48:12.575Z,4.68
2023-05-11T15:50:39.931Z,2.85
2023-05-11T15:58:29.385Z,3.13
2023-05-11T16:00:58.630Z,3.25
2023-05-11T16:03:26.347Z,3.30
2023-05-11T16:05:53.925Z,3.10
2023-05-11T16:08:21.734Z,2.78
2023-05-11T16:10:49.221Z,2.90
2023-05-11T16:13:16.731Z,2.97
2023-05-11T16:15:44.062Z,2.83
2023-05-11T16:18:11.589Z,2.83
2023-05-11T16:20:38.963Z,3.53
2023-05-11T16:23:06.377Z,3.22
2023-05-11T16:25:33.754Z,3.42
2023-05-11T16:28:01.117Z,2.90
2023-05-11T16:30:28.788Z,2.95
2023-05-11T16:32:56.451Z,3.53
2023-05-11T16:35:23.870Z,3.08
2023-05-11T16:37:51.267Z,2.78
2023-05-11T16:40:21.373Z,3.40
2023-05-11T16:42:49.238Z,4.38
2023-05-11T16:45:16.818Z,3.42
2023-05-11T16:47:47.708Z,3.28
2023-05-11T16:50:16.701Z,2.85
2023-05-11T16:52:44.189Z,3.38
2023-05-11T16:55:11.657Z,3.40
2023-05-11T16:57:38.976Z,3.22
2023-05-11T17:00:06.640Z,3.97
2023-05-11T17:02:34.287Z,3.20
2023-05-11T17:05:01.808Z,3.22
2023-05-11T17:07:29.253Z,3.08
2023-05-11T17:09:57.394Z,3.00
2023-05-11T17:12:25.133Z,2.75
2023-05-11T17:14:52.476Z,3.17
2023-05-11T17:17:19.861Z,3.05
2023-05-11T17:19:47.370Z,2.75
2023-05-11T17:22:15.130Z,3.30
2023-05-11T17:24:42.708Z,2.97
2023-05-11T17:27:10.160Z,2.92
2023-05-11T17:29:37.569Z,3.03
2023-05-11T17:32:05.120Z,3.15
2023-05-11T17:34:32.752Z,3.17
2023-05-11T17:37:00.262Z,2.70
2023-05-11T17:39:27.588Z,2.90
2023-05-11T17:41:54.901Z,3.05
2023-05-11T17:44:23.073Z,3.88
2023-05-11T17:46:50.948Z,3.85
2023-05-11T17:49:18.359Z,3.40
2023-05-11T17:51:45.945Z,3.47
2023-05-11T17:54:13.874Z,3.50
2023-05-11T17:56:41.458Z,3.13
2023-05-11T17:59:09.332Z,3.83
2023-05-11T18:01:36.700Z,3.55
2023-05-11T18:04:04.946Z,3.50
2023-05-11T18:06:32.825Z,3.60
2023-05-11T18:09:00.224Z,3.70
2023-05-11T18:11:27.939Z,3.92
2023-05-11T18:13:55.307Z,3.75
2023-05-11T18:16:22.808Z,3.45
2023-05-11T18:18:50.293Z,3.50
2023-05-11T18:21:18.046Z,3.40
2023-05-11T18:23:45.427Z,3.90
2023-05-11T18:26:14.238Z,4.57
2023-05-11T18:28:42.053Z,4.40
2023-05-11T18:31:09.429Z,4.10
2023-05-11T18:33:36.841Z,4.50
2023-05-11T18:36:04.312Z,4.32
2023-05-11T18:38:31.664Z,4.35
2023-05-11T18:40:59.041Z,4.20
2023-05-11T18:43:26.478Z,4.57
2023-05-11T18:45:53.820Z,4.55
2023-05-11T18:48:21.648Z,6.10
2023-05-11T18:50:57.878Z,5.55
2023-05-11T18:53:25.290Z,5.40
2023-05-11T18:55:53.836Z,5.20
2023-05-11T18:58:21.770Z,5.93
2023-05-11T19:00:49.746Z,6.22
2023-05-11T19:03:18.996Z,6.40
2023-05-11T19:05:46.508Z,6.20
2023-05-11T19:08:13.885Z,6.43
2023-05-11T19:10:41.415Z,5.30
2023-05-11T19:13:08.860Z,5.60
2023-05-11T19:15:36.204Z,6.03
2023-05-11T19:18:03.569Z,5.45
2023-05-11T19:20:30.917Z,5.55
2023-05-11T19:22:58.461Z,5.75
2023-05-11T19:25:25.804Z,4.65
2023-05-11T19:27:53.292Z,4.55
2023-05-11T19:30:20.840Z,4.50
2023-05-11T19:32:49.001Z,4.72
2023-05-11T19:35:16.991Z,4.15
2023-05-11T19:37:46.416Z,3.95
2023-05-11T19:40:43.816Z,3.85
2023-05-11T19:43:03.436Z,4.20
2023-05-11T19:45:31.832Z,3.42
2023-05-11T19:47:59.731Z,3.50
2023-05-11T19:50:27.916Z,4.10
2023-05-11T19:52:55.240Z,4.40
2023-05-11T19:55:22.646Z,4.13
2023-05-11T19:57:50.012Z,3.85
2023-05-11T20:00:24.911Z,4.13
2023-05-11T20:02:52.810Z,4.15
2023-05-11T20:05:20.592Z,5.25
2023-05-11T20:07:47.930Z,5.07
2023-05-11T20:10:15.242Z,5.05
2023-05-11T20:12:42.657Z,5.05
2023-05-11T20:15:11.104Z,5.00
2023-05-11T20:17:39.698Z,4.80
2023-05-11T20:20:08.755Z,4.90
2023-05-11T20:22:36.966Z,4.72
2023-05-11T20:25:04.865Z,5.00
2023-05-11T20:27:32.285Z,4.72
2023-05-11T20:29:59.610Z,4.57
2023-05-11T20:32:27.081Z,5.15
2023-05-11T20:34:54.632Z,4.68
2023-05-11T20:37:22.357Z,4.93
2023-05-11T20:39:49.705Z,4.72
2023-05-11T20:42:17.350Z,4.93
2023-05-11T20:44:45.048Z,5.28
2023-05-11T20:47:12.487Z,5.85
2023-05-11T20:49:39.955Z,5.50
2023-05-11T20:52:07.946Z,5.45
2023-05-11T20:54:38.373Z,6.22
2023-05-11T20:57:05.816Z,6.32
2023-05-11T21:02:03.980Z,7.07
2023-05-11T21:04:31.706Z,6.20
2023-05-11T21:06:59.085Z,5.57
2023-05-11T21:09:26.499Z,5.18
2023-05-11T21:11:53.948Z,4.07
2023-05-11T21:14:21.305Z,4.63
2023-05-11T21:16:49.001Z,4.20
2023-05-11T21:19:16.909Z,4.45
2023-05-11T21:21:44.371Z,3.85
2023-05-11T21:24:14.181Z,4.68
2023-05-11T21:26:41.615Z,4.55
2023-05-11T21:29:08.984Z,3.63
2023-05-11T21:31:36.290Z,4.13
2023-05-11T21:34:03.628Z,4.55
2023-05-11T21:36:31.211Z,5.20
2023-05-11T21:38:58.676Z,4.60
2023-05-11T21:41:26.268Z,4.75
2023-05-11T21:43:53.753Z,4.90
2023-05-11T21:46:21.270Z,5.07
2023-05-11T21:48:48.621Z,4.63
2023-05-11T21:51:16.235Z,4.93
2023-05-11T21:53:43.592Z,4.90
2023-05-11T21:56:10.994Z,5.18
2023-05-11T21:58:38.810Z,5.28
2023-05-11T22:01:06.161Z,5.13
2023-05-11T22:03:33.564Z,4.68
2023-05-11T22:06:00.995Z,5.03
2023-05-11T22:08:28.434Z,5.20
2023-05-11T22:10:55.861Z,4.88
2023-05-11T22:13:23.179Z,5.72
2023-05-11T22:15:50.509Z,5.00
2023-05-11T22:18:17.964Z,5.13
2023-05-11T22:20:45.259Z,5.10
2023-05-11T22:23:15.431Z,5.13
2023-05-11T22:25:43.088Z,4.50
2023-05-11T22:28:10.425Z,4.47
2023-05-11T22:30:38.037Z,4.95
2023-05-11T22:33:05.549Z,4.75
2023-05-11T22:35:32.943Z,4.90
2023-05-11T22:38:01.973Z,5.55
2023-05-11T22:40:29.407Z,4.97
2023-05-11T22:42:56.822Z,4.85
2023-05-11T22:45:24.133Z,4.60
2023-05-11T22:47:51.536Z,5.00
2023-05-11T22:50:19.301Z,4.15
2023-05-11T22:52:47.512Z,4.80
2023-05-11T22:55:14.950Z,4.47
2023-05-11T22:57:42.276Z,4.43
2023-05-11T23:00:12.878Z,4.47
2023-05-11T23:02:40.411Z,4.15
2023-05-11T23:05:08.128Z,4.03
2023-05-11T23:07:35.649Z,4.18
2023-05-11T23:10:03.097Z,3.65
2023-05-11T23:12:30.481Z,4.90
2023-05-11T23:14:58.055Z,4.13
2023-05-11T23:17:25.485Z,4.07
2023-05-11T23:19:53.263Z,3.78
2023-05-11T23:22:20.978Z,4.13
2023-05-11T23:24:48.337Z,3.95
2023-05-11T23:27:16.464Z,3.97
2023-05-11T23:29:43.805Z,4.00
2023-05-11T23:32:11.133Z,4.00
2023-05-11T23:34:38.438Z,4.00
2023-05-11T23:37:06.008Z,4.22
2023-05-11T23:39:33.497Z,3.90
2023-05-11T23:42:01.281Z,3.22
2023-05-11T23:44:28.596Z,3.90
2023-05-11T23:46:55.967Z,3.67
2023-05-11T23:49:23.321Z,3.85
2023-05-11T23:51:50.742Z,3.38
2023-05-11T23:54:18.304Z,3.90
2023-05-11T23:56:46.898Z,3.70
2023-05-11T23:59:14.566Z,3.35
